sensor_id;sensor_type;location;lat;lon;timestamp;temperature;humidity
4215;DHT22;2121;48.062;7.850;2022-12-29T00:01:36;12.90;97.30
4215;DHT22;2121;48.062;7.850;2022-12-29T00:04:03;13.00;97.00
4215;DHT22;2121;48.062;7.850;2022-12-29T00:06:29;13.00;97.00
4215;DHT22;2121;48.062;7.850;2022-12-29T00:08:55;13.10;97.00
4215;DHT22;2121;48.062;7.850;2022-12-29T00:11:24;13.10;96.90
4215;DHT22;2121;48.062;7.850;2022-12-29T00:13:52;13.10;96.90
4215;DHT22;2121;48.062;7.850;2022-12-29T00:16:36;13.10;97.10
4215;DHT22;2121;48.062;7.850;2022-12-29T00:19:04;13.10;96.90
4215;DHT22;2121;48.062;7.850;2022-12-29T00:21:31;13.20;96.80
4215;DHT22;2121;48.062;7.850;2022-12-29T00:24:21;13.20;96.70
4215;DHT22;2121;48.062;7.850;2022-12-29T00:27:07;13.20;96.70
4215;DHT22;2121;48.062;7.850;2022-12-29T00:29:54;13.20;96.90
4215;DHT22;2121;48.062;7.850;2022-12-29T00:32:39;13.20;96.50
4215;DHT22;2121;48.062;7.850;2022-12-29T00:35:36;13.20;96.60
4215;DHT22;2121;48.062;7.850;2022-12-29T00:38:07;13.30;96.50
4215;DHT22;2121;48.062;7.850;2022-12-29T00:40:51;13.20;96.50
4215;DHT22;2121;48.062;7.850;2022-12-29T00:43:35;13.20;96.70
4215;DHT22;2121;48.062;7.850;2022-12-29T00:46:21;13.10;96.70
4215;DHT22;2121;48.062;7.850;2022-12-29T00:48:47;13.20;96.40
4215;DHT22;2121;48.062;7.850;2022-12-29T00:51:31;13.20;96.50
4215;DHT22;2121;48.062;7.850;2022-12-29T00:53:57;13.30;96.20
4215;DHT22;2121;48.062;7.850;2022-12-29T00:56:22;13.30;96.30
4215;DHT22;2121;48.062;7.850;2022-12-29T00:58:49;13.30;96.20
4215;DHT22;2121;48.062;7.850;2022-12-29T01:01:14;13.30;96.10
4215;DHT22;2121;48.062;7.850;2022-12-29T01:03:40;13.30;95.90
4215;DHT22;2121;48.062;7.850;2022-12-29T01:06:08;13.40;96.00
4215;DHT22;2121;48.062;7.850;2022-12-29T01:08:34;13.40;96.10
4215;DHT22;2121;48.062;7.850;2022-12-29T01:11:11;13.40;95.80
4215;DHT22;2121;48.062;7.850;2022-12-29T01:13:38;13.40;95.80
4215;DHT22;2121;48.062;7.850;2022-12-29T01:16:06;13.50;95.80
4215;DHT22;2121;48.062;7.850;2022-12-29T01:18:32;13.40;96.00
4215;DHT22;2121;48.062;7.850;2022-12-29T01:21:00;13.30;96.10
4215;DHT22;2121;48.062;7.850;2022-12-29T01:23:28;13.30;96.20
4215;DHT22;2121;48.062;7.850;2022-12-29T01:25:54;13.20;96.20
4215;DHT22;2121;48.062;7.850;2022-12-29T01:28:21;13.20;96.30
4215;DHT22;2121;48.062;7.850;2022-12-29T01:30:47;13.20;96.20
4215;DHT22;2121;48.062;7.850;2022-12-29T01:33:12;13.20;96.50
4215;DHT22;2121;48.062;7.850;2022-12-29T01:35:38;13.10;96.40
4215;DHT22;2121;48.062;7.850;2022-12-29T01:38:04;13.00;96.50
4215;DHT22;2121;48.062;7.850;2022-12-29T01:40:29;13.00;96.40
4215;DHT22;2121;48.062;7.850;2022-12-29T01:42:55;13.00;96.60
4215;DHT22;2121;48.062;7.850;2022-12-29T01:45:21;13.00;96.60
4215;DHT22;2121;48.062;7.850;2022-12-29T01:47:53;13.00;96.60
4215;DHT22;2121;48.062;7.850;2022-12-29T01:50:32;12.90;96.80
4215;DHT22;2121;48.062;7.850;2022-12-29T01:53:11;12.90;96.70
4215;DHT22;2121;48.062;7.850;2022-12-29T01:55:44;12.90;96.80
4215;DHT22;2121;48.062;7.850;2022-12-29T01:58:13;12.90;96.90
4215;DHT22;2121;48.062;7.850;2022-12-29T02:00:39;12.80;96.90
4215;DHT22;2121;48.062;7.850;2022-12-29T02:03:06;12.80;97.00
4215;DHT22;2121;48.062;7.850;2022-12-29T02:08:13;12.70;97.20
4215;DHT22;2121;48.062;7.850;2022-12-29T02:10:39;12.80;97.10
4215;DHT22;2121;48.062;7.850;2022-12-29T02:13:06;12.80;97.10
4215;DHT22;2121;48.062;7.850;2022-12-29T02:21:36;12.80;97.10
4215;DHT22;2121;48.062;7.850;2022-12-29T02:30:43;12.80;97.10
4215;DHT22;2121;48.062;7.850;2022-12-29T02:33:30;12.80;97.20
4215;DHT22;2121;48.062;7.850;2022-12-29T02:39:15;12.80;97.10
4215;DHT22;2121;48.062;7.850;2022-12-29T02:44:45;12.80;97.40
4215;DHT22;2121;48.062;7.850;2022-12-29T02:53:02;12.70;97.30
4215;DHT22;2121;48.062;7.850;2022-12-29T02:55:30;12.70;97.30
4215;DHT22;2121;48.062;7.850;2022-12-29T02:58:19;12.70;97.40
4215;DHT22;2121;48.062;7.850;2022-12-29T03:04:18;12.60;97.60
4215;DHT22;2121;48.062;7.850;2022-12-29T03:07:20;12.60;97.70
4215;DHT22;2121;48.062;7.850;2022-12-29T03:10:24;12.60;97.80
4215;DHT22;2121;48.062;7.850;2022-12-29T03:13:20;12.60;97.90
4215;DHT22;2121;48.062;7.850;2022-12-29T03:21:43;12.40;98.40
4215;DHT22;2121;48.062;7.850;2022-12-29T03:24:39;12.40;98.50
4215;DHT22;2121;48.062;7.850;2022-12-29T03:27:10;12.40;98.50
4215;DHT22;2121;48.062;7.850;2022-12-29T03:29:43;12.40;98.60
4215;DHT22;2121;48.062;7.850;2022-12-29T03:32:13;12.40;98.80
4215;DHT22;2121;48.062;7.850;2022-12-29T03:34:40;12.40;98.70
4215;DHT22;2121;48.062;7.850;2022-12-29T03:37:11;12.40;98.70
4215;DHT22;2121;48.062;7.850;2022-12-29T03:39:38;12.30;99.00
4215;DHT22;2121;48.062;7.850;2022-12-29T03:42:14;12.20;98.70
4215;DHT22;2121;48.062;7.850;2022-12-29T03:44:44;12.20;98.90
4215;DHT22;2121;48.062;7.850;2022-12-29T03:47:11;12.10;98.90
4215;DHT22;2121;48.062;7.850;2022-12-29T03:49:37;12.10;98.90
4215;DHT22;2121;48.062;7.850;2022-12-29T03:52:04;12.10;98.70
4215;DHT22;2121;48.062;7.850;2022-12-29T03:54:31;12.20;98.70
4215;DHT22;2121;48.062;7.850;2022-12-29T03:56:57;12.20;98.70
4215;DHT22;2121;48.062;7.850;2022-12-29T03:59:23;12.20;98.70
4215;DHT22;2121;48.062;7.850;2022-12-29T04:01:48;12.30;98.50
4215;DHT22;2121;48.062;7.850;2022-12-29T04:04:14;12.40;98.40
4215;DHT22;2121;48.062;7.850;2022-12-29T04:06:40;12.40;98.60
4215;DHT22;2121;48.062;7.850;2022-12-29T04:09:06;12.40;98.70
4215;DHT22;2121;48.062;7.850;2022-12-29T04:11:32;12.30;98.70
4215;DHT22;2121;48.062;7.850;2022-12-29T04:13:58;12.40;98.60
4215;DHT22;2121;48.062;7.850;2022-12-29T04:16:23;12.40;98.70
4215;DHT22;2121;48.062;7.850;2022-12-29T04:18:49;12.30;98.80
4215;DHT22;2121;48.062;7.850;2022-12-29T04:21:15;12.30;98.60
4215;DHT22;2121;48.062;7.850;2022-12-29T04:23:40;12.40;98.70
4215;DHT22;2121;48.062;7.850;2022-12-29T04:26:07;12.40;98.80
4215;DHT22;2121;48.062;7.850;2022-12-29T04:28:34;12.30;98.80
4215;DHT22;2121;48.062;7.850;2022-12-29T04:31:01;12.20;98.90
4215;DHT22;2121;48.062;7.850;2022-12-29T04:33:27;12.20;99.10
4215;DHT22;2121;48.062;7.850;2022-12-29T04:35:54;12.10;99.10
4215;DHT22;2121;48.062;7.850;2022-12-29T04:38:21;12.10;99.30
4215;DHT22;2121;48.062;7.850;2022-12-29T04:40:48;12.10;99.40
4215;DHT22;2121;48.062;7.850;2022-12-29T04:43:15;12.10;99.40
4215;DHT22;2121;48.062;7.850;2022-12-29T04:45:45;12.10;99.40
4215;DHT22;2121;48.062;7.850;2022-12-29T04:48:12;12.00;99.60
4215;DHT22;2121;48.062;7.850;2022-12-29T04:50:39;12.00;99.60
4215;DHT22;2121;48.062;7.850;2022-12-29T04:53:06;11.90;99.90
4215;DHT22;2121;48.062;7.850;2022-12-29T04:55:32;11.80;99.90
4215;DHT22;2121;48.062;7.850;2022-12-29T04:57:58;11.80;99.70
4215;DHT22;2121;48.062;7.850;2022-12-29T05:00:23;11.90;99.60
4215;DHT22;2121;48.062;7.850;2022-12-29T05:02:49;12.00;99.60
4215;DHT22;2121;48.062;7.850;2022-12-29T05:05:15;12.00;99.70
4215;DHT22;2121;48.062;7.850;2022-12-29T05:07:41;12.10;99.30
4215;DHT22;2121;48.062;7.850;2022-12-29T05:10:07;12.10;99.30
4215;DHT22;2121;48.062;7.850;2022-12-29T05:12:35;12.10;99.10
4215;DHT22;2121;48.062;7.850;2022-12-29T05:15:01;12.20;99.20
4215;DHT22;2121;48.062;7.850;2022-12-29T05:17:28;12.10;99.30
4215;DHT22;2121;48.062;7.850;2022-12-29T05:19:54;12.10;99.30
4215;DHT22;2121;48.062;7.850;2022-12-29T05:22:20;12.10;99.10
4215;DHT22;2121;48.062;7.850;2022-12-29T05:24:46;12.20;99.20
4215;DHT22;2121;48.062;7.850;2022-12-29T05:27:12;12.20;99.20
4215;DHT22;2121;48.062;7.850;2022-12-29T05:29:38;12.20;99.20
4215;DHT22;2121;48.062;7.850;2022-12-29T05:32:04;12.30;99.20
4215;DHT22;2121;48.062;7.850;2022-12-29T05:34:30;12.20;99.10
4215;DHT22;2121;48.062;7.850;2022-12-29T05:36:55;12.20;99.10
4215;DHT22;2121;48.062;7.850;2022-12-29T05:39:21;12.20;99.00
4215;DHT22;2121;48.062;7.850;2022-12-29T05:41:47;12.30;99.00
4215;DHT22;2121;48.062;7.850;2022-12-29T05:44:13;12.30;98.90
4215;DHT22;2121;48.062;7.850;2022-12-29T05:46:39;12.30;98.90
4215;DHT22;2121;48.062;7.850;2022-12-29T05:49:05;12.30;99.00
4215;DHT22;2121;48.062;7.850;2022-12-29T05:51:31;12.30;99.10
4215;DHT22;2121;48.062;7.850;2022-12-29T05:53:57;12.30;99.10
4215;DHT22;2121;48.062;7.850;2022-12-29T05:56:22;12.20;99.10
4215;DHT22;2121;48.062;7.850;2022-12-29T05:58:48;12.30;98.90
4215;DHT22;2121;48.062;7.850;2022-12-29T06:01:14;12.30;98.80
4215;DHT22;2121;48.062;7.850;2022-12-29T06:03:40;12.40;98.80
4215;DHT22;2121;48.062;7.850;2022-12-29T06:06:06;12.30;98.80
4215;DHT22;2121;48.062;7.850;2022-12-29T06:08:32;12.40;98.70
4215;DHT22;2121;48.062;7.850;2022-12-29T06:10:58;12.40;98.70
4215;DHT22;2121;48.062;7.850;2022-12-29T06:13:23;12.40;98.60
4215;DHT22;2121;48.062;7.850;2022-12-29T06:15:49;12.30;98.50
4215;DHT22;2121;48.062;7.850;2022-12-29T06:18:16;12.40;98.70
4215;DHT22;2121;48.062;7.850;2022-12-29T06:20:42;12.20;98.60
4215;DHT22;2121;48.062;7.850;2022-12-29T06:23:08;12.10;98.70
4215;DHT22;2121;48.062;7.850;2022-12-29T06:25:33;12.00;98.80
4215;DHT22;2121;48.062;7.850;2022-12-29T06:28:01;12.00;98.70
4215;DHT22;2121;48.062;7.850;2022-12-29T06:30:28;11.90;98.70
4215;DHT22;2121;48.062;7.850;2022-12-29T06:32:53;11.90;98.90
4215;DHT22;2121;48.062;7.850;2022-12-29T06:35:20;11.80;99.00
4215;DHT22;2121;48.062;7.850;2022-12-29T06:37:48;11.80;98.80
4215;DHT22;2121;48.062;7.850;2022-12-29T06:40:14;11.90;98.80
4215;DHT22;2121;48.062;7.850;2022-12-29T06:42:40;11.90;98.70
4215;DHT22;2121;48.062;7.850;2022-12-29T06:45:06;11.80;98.90
4215;DHT22;2121;48.062;7.850;2022-12-29T06:47:33;11.70;99.00
4215;DHT22;2121;48.062;7.850;2022-12-29T06:49:59;11.60;99.10
4215;DHT22;2121;48.062;7.850;2022-12-29T06:52:25;11.60;99.00
4215;DHT22;2121;48.062;7.850;2022-12-29T06:54:51;11.60;99.00
4215;DHT22;2121;48.062;7.850;2022-12-29T06:57:16;11.60;98.60
4215;DHT22;2121;48.062;7.850;2022-12-29T06:59:42;11.90;98.40
4215;DHT22;2121;48.062;7.850;2022-12-29T07:02:10;12.10;98.10
4215;DHT22;2121;48.062;7.850;2022-12-29T07:04:36;12.20;98.00
4215;DHT22;2121;48.062;7.850;2022-12-29T07:07:02;12.30;97.90
4215;DHT22;2121;48.062;7.850;2022-12-29T07:09:28;12.40;97.80
4215;DHT22;2121;48.062;7.850;2022-12-29T07:11:53;12.50;97.60
4215;DHT22;2121;48.062;7.850;2022-12-29T07:14:19;12.60;97.50
4215;DHT22;2121;48.062;7.850;2022-12-29T07:16:45;12.70;97.40
4215;DHT22;2121;48.062;7.850;2022-12-29T07:19:10;12.80;97.40
4215;DHT22;2121;48.062;7.850;2022-12-29T07:21:36;12.80;97.40
4215;DHT22;2121;48.062;7.850;2022-12-29T07:24:02;12.90;97.40
4215;DHT22;2121;48.062;7.850;2022-12-29T07:26:28;12.80;97.60
4215;DHT22;2121;48.062;7.850;2022-12-29T07:28:53;12.80;97.70
4215;DHT22;2121;48.062;7.850;2022-12-29T07:31:22;12.70;97.80
4215;DHT22;2121;48.062;7.850;2022-12-29T07:33:48;12.60;97.80
4215;DHT22;2121;48.062;7.850;2022-12-29T07:36:15;12.60;97.80
4215;DHT22;2121;48.062;7.850;2022-12-29T07:38:41;12.60;97.90
4215;DHT22;2121;48.062;7.850;2022-12-29T07:41:08;12.60;97.90
4215;DHT22;2121;48.062;7.850;2022-12-29T07:43:34;12.60;98.00
4215;DHT22;2121;48.062;7.850;2022-12-29T07:46:00;12.60;98.10
4215;DHT22;2121;48.062;7.850;2022-12-29T07:48:26;12.60;98.20
4215;DHT22;2121;48.062;7.850;2022-12-29T07:50:52;12.50;98.10
4215;DHT22;2121;48.062;7.850;2022-12-29T07:53:19;12.50;98.20
4215;DHT22;2121;48.062;7.850;2022-12-29T07:55:45;12.60;98.10
4215;DHT22;2121;48.062;7.850;2022-12-29T07:58:10;12.60;98.20
4215;DHT22;2121;48.062;7.850;2022-12-29T08:00:37;12.50;98.30
4215;DHT22;2121;48.062;7.850;2022-12-29T08:03:04;12.40;98.80
4215;DHT22;2121;48.062;7.850;2022-12-29T08:05:31;12.30;98.70
4215;DHT22;2121;48.062;7.850;2022-12-29T08:07:57;12.30;98.80
4215;DHT22;2121;48.062;7.850;2022-12-29T08:10:24;12.40;98.90
4215;DHT22;2121;48.062;7.850;2022-12-29T08:12:49;12.40;98.80
4215;DHT22;2121;48.062;7.850;2022-12-29T08:15:15;12.50;98.90
4215;DHT22;2121;48.062;7.850;2022-12-29T08:17:41;12.60;98.60
4215;DHT22;2121;48.062;7.850;2022-12-29T08:20:07;12.60;98.80
4215;DHT22;2121;48.062;7.850;2022-12-29T08:22:34;12.60;98.60
4215;DHT22;2121;48.062;7.850;2022-12-29T08:25:00;12.70;98.80
4215;DHT22;2121;48.062;7.850;2022-12-29T08:27:26;12.60;98.70
4215;DHT22;2121;48.062;7.850;2022-12-29T08:29:52;12.60;98.70
4215;DHT22;2121;48.062;7.850;2022-12-29T08:32:18;12.70;98.80
4215;DHT22;2121;48.062;7.850;2022-12-29T08:34:44;12.70;98.80
4215;DHT22;2121;48.062;7.850;2022-12-29T08:37:10;12.80;98.80
4215;DHT22;2121;48.062;7.850;2022-12-29T08:39:36;12.70;98.70
4215;DHT22;2121;48.062;7.850;2022-12-29T08:42:01;12.80;98.60
4215;DHT22;2121;48.062;7.850;2022-12-29T08:44:27;12.90;98.50
4215;DHT22;2121;48.062;7.850;2022-12-29T08:46:53;13.10;98.60
4215;DHT22;2121;48.062;7.850;2022-12-29T08:49:21;13.20;98.50
4215;DHT22;2121;48.062;7.850;2022-12-29T08:51:47;13.40;98.50
4215;DHT22;2121;48.062;7.850;2022-12-29T08:54:13;13.40;98.30
4215;DHT22;2121;48.062;7.850;2022-12-29T08:56:39;13.30;98.40
4215;DHT22;2121;48.062;7.850;2022-12-29T08:59:05;13.30;98.30
4215;DHT22;2121;48.062;7.850;2022-12-29T09:01:30;13.40;98.30
4215;DHT22;2121;48.062;7.850;2022-12-29T09:03:56;13.50;98.40
4215;DHT22;2121;48.062;7.850;2022-12-29T09:06:22;13.50;98.40
4215;DHT22;2121;48.062;7.850;2022-12-29T09:08:48;13.50;98.40
4215;DHT22;2121;48.062;7.850;2022-12-29T09:11:19;13.40;98.50
4215;DHT22;2121;48.062;7.850;2022-12-29T09:13:47;13.40;98.40
4215;DHT22;2121;48.062;7.850;2022-12-29T09:16:14;13.50;98.40
4215;DHT22;2121;48.062;7.850;2022-12-29T09:18:40;13.60;98.40
4215;DHT22;2121;48.062;7.850;2022-12-29T09:21:07;13.50;98.50
4215;DHT22;2121;48.062;7.850;2022-12-29T09:23:34;13.60;98.60
4215;DHT22;2121;48.062;7.850;2022-12-29T09:26:00;13.50;98.70
4215;DHT22;2121;48.062;7.850;2022-12-29T09:28:26;13.60;98.60
4215;DHT22;2121;48.062;7.850;2022-12-29T09:30:54;13.60;98.80
4215;DHT22;2121;48.062;7.850;2022-12-29T09:33:20;13.60;98.70
4215;DHT22;2121;48.062;7.850;2022-12-29T09:35:55;13.70;98.70
4215;DHT22;2121;48.062;7.850;2022-12-29T09:38:22;13.80;98.80
4215;DHT22;2121;48.062;7.850;2022-12-29T09:40:52;13.80;98.70
4215;DHT22;2121;48.062;7.850;2022-12-29T09:46:27;14.00;98.80
4215;DHT22;2121;48.062;7.850;2022-12-29T09:52:11;14.10;99.00
4215;DHT22;2121;48.062;7.850;2022-12-29T09:55:00;14.10;99.30
4215;DHT22;2121;48.062;7.850;2022-12-29T09:57:34;13.90;99.70
4215;DHT22;2121;48.062;7.850;2022-12-29T10:02:44;13.80;99.90
4215;DHT22;2121;48.062;7.850;2022-12-29T10:05:35;13.70;99.90
4215;DHT22;2121;48.062;7.850;2022-12-29T10:11:04;13.50;99.90
4215;DHT22;2121;48.062;7.850;2022-12-29T10:22:59;13.30;99.90
4215;DHT22;2121;48.062;7.850;2022-12-29T10:25:25;13.30;99.90
4215;DHT22;2121;48.062;7.850;2022-12-29T10:27:54;13.30;99.90
4215;DHT22;2121;48.062;7.850;2022-12-29T10:30:24;13.40;99.90
4215;DHT22;2121;48.062;7.850;2022-12-29T10:32:56;13.50;99.90
4215;DHT22;2121;48.062;7.850;2022-12-29T10:35:28;13.50;99.90
4215;DHT22;2121;48.062;7.850;2022-12-29T10:40:46;13.40;99.90
4215;DHT22;2121;48.062;7.850;2022-12-29T10:45:53;13.30;99.90
4215;DHT22;2121;48.062;7.850;2022-12-29T10:48:31;13.20;99.90
4215;DHT22;2121;48.062;7.850;2022-12-29T10:51:01;13.20;99.90
4215;DHT22;2121;48.062;7.850;2022-12-29T10:53:49;13.10;99.90
4215;DHT22;2121;48.062;7.850;2022-12-29T10:56:35;13.00;99.90
4215;DHT22;2121;48.062;7.850;2022-12-29T10:59:19;12.90;99.90
4215;DHT22;2121;48.062;7.850;2022-12-29T11:05:03;12.90;99.90
4215;DHT22;2121;48.062;7.850;2022-12-29T11:07:36;13.00;99.90
4215;DHT22;2121;48.062;7.850;2022-12-29T11:15:40;13.20;99.90
4215;DHT22;2121;48.062;7.850;2022-12-29T11:18:31;13.30;99.90
4215;DHT22;2121;48.062;7.850;2022-12-29T11:20:59;13.40;99.90
4215;DHT22;2121;48.062;7.850;2022-12-29T11:23:35;13.30;99.90
4215;DHT22;2121;48.062;7.850;2022-12-29T11:26:22;13.10;99.90
4215;DHT22;2121;48.062;7.850;2022-12-29T11:31:50;12.20;99.90
4215;DHT22;2121;48.062;7.850;2022-12-29T11:34:27;12.00;99.90
4215;DHT22;2121;48.062;7.850;2022-12-29T11:39:59;12.60;99.90
4215;DHT22;2121;48.062;7.850;2022-12-29T11:42:43;13.10;99.90
4215;DHT22;2121;48.062;7.850;2022-12-29T11:45:22;13.50;99.90
4215;DHT22;2121;48.062;7.850;2022-12-29T11:48:07;13.60;99.90
4215;DHT22;2121;48.062;7.850;2022-12-29T11:50:37;13.60;99.90
4215;DHT22;2121;48.062;7.850;2022-12-29T11:53:05;13.60;99.90
4215;DHT22;2121;48.062;7.850;2022-12-29T11:55:38;13.60;99.90
4215;DHT22;2121;48.062;7.850;2022-12-29T11:58:04;13.70;99.90
4215;DHT22;2121;48.062;7.850;2022-12-29T12:00:34;13.80;99.90
4215;DHT22;2121;48.062;7.850;2022-12-29T12:03:01;13.90;99.90
4215;DHT22;2121;48.062;7.850;2022-12-29T12:05:54;14.00;99.90
4215;DHT22;2121;48.062;7.850;2022-12-29T12:08:37;14.10;99.90
4215;DHT22;2121;48.062;7.850;2022-12-29T12:11:20;14.10;99.90
4215;DHT22;2121;48.062;7.850;2022-12-29T12:17:11;14.00;99.90
4215;DHT22;2121;48.062;7.850;2022-12-29T12:19:46;14.10;99.90
4215;DHT22;2121;48.062;7.850;2022-12-29T12:22:43;14.00;99.90
4215;DHT22;2121;48.062;7.850;2022-12-29T12:25:23;13.90;99.90
4215;DHT22;2121;48.062;7.850;2022-12-29T12:28:05;13.80;99.90
4215;DHT22;2121;48.062;7.850;2022-12-29T12:30:43;13.80;99.90
4215;DHT22;2121;48.062;7.850;2022-12-29T12:33:35;13.80;99.90
4215;DHT22;2121;48.062;7.850;2022-12-29T12:38:55;13.70;99.90
4215;DHT22;2121;48.062;7.850;2022-12-29T12:51:10;14.00;99.90
4215;DHT22;2121;48.062;7.850;2022-12-29T12:54:05;14.30;99.90
4215;DHT22;2121;48.062;7.850;2022-12-29T12:59:32;14.30;99.90
4215;DHT22;2121;48.062;7.850;2022-12-29T13:08:28;13.90;99.90
4215;DHT22;2121;48.062;7.850;2022-12-29T13:22:58;13.80;99.90
4215;DHT22;2121;48.062;7.850;2022-12-29T13:25:50;13.70;99.90
4215;DHT22;2121;48.062;7.850;2022-12-29T13:36:44;13.60;99.90
4215;DHT22;2121;48.062;7.850;2022-12-29T13:39:33;13.60;99.90
4215;DHT22;2121;48.062;7.850;2022-12-29T13:42:03;13.60;99.90
4215;DHT22;2121;48.062;7.850;2022-12-29T13:44:35;13.60;99.90
4215;DHT22;2121;48.062;7.850;2022-12-29T13:47:15;13.70;99.90
4215;DHT22;2121;48.062;7.850;2022-12-29T13:49:54;13.80;99.90
4215;DHT22;2121;48.062;7.850;2022-12-29T13:58:25;13.90;99.90
4215;DHT22;2121;48.062;7.850;2022-12-29T14:01:29;13.80;99.90
4215;DHT22;2121;48.062;7.850;2022-12-29T14:03:58;13.60;99.90
4215;DHT22;2121;48.062;7.850;2022-12-29T14:06:30;13.50;99.90
4215;DHT22;2121;48.062;7.850;2022-12-29T14:09:04;13.50;99.90
4215;DHT22;2121;48.062;7.850;2022-12-29T14:11:35;13.40;99.90
4215;DHT22;2121;48.062;7.850;2022-12-29T14:16:39;13.40;99.90
4215;DHT22;2121;48.062;7.850;2022-12-29T14:21:54;13.30;99.90
4215;DHT22;2121;48.062;7.850;2022-12-29T14:34:55;13.10;99.90
4215;DHT22;2121;48.062;7.850;2022-12-29T14:37:26;13.10;99.90
4215;DHT22;2121;48.062;7.850;2022-12-29T14:42:32;13.00;99.90
4215;DHT22;2121;48.062;7.850;2022-12-29T14:45:07;13.00;99.90
4215;DHT22;2121;48.062;7.850;2022-12-29T14:47:37;13.00;99.90
4215;DHT22;2121;48.062;7.850;2022-12-29T14:50:12;13.00;99.90
4215;DHT22;2121;48.062;7.850;2022-12-29T14:55:37;12.90;99.90
4215;DHT22;2121;48.062;7.850;2022-12-29T15:00:57;12.90;99.90
4215;DHT22;2121;48.062;7.850;2022-12-29T15:06:25;12.80;99.90
4215;DHT22;2121;48.062;7.850;2022-12-29T15:09:15;12.90;99.90
4215;DHT22;2121;48.062;7.850;2022-12-29T15:12:01;12.90;99.90
4215;DHT22;2121;48.062;7.850;2022-12-29T15:14:34;12.90;99.90
4215;DHT22;2121;48.062;7.850;2022-12-29T15:17:29;12.80;99.90
4215;DHT22;2121;48.062;7.850;2022-12-29T15:19:59;12.70;99.90
4215;DHT22;2121;48.062;7.850;2022-12-29T15:22:27;12.70;99.90
4215;DHT22;2121;48.062;7.850;2022-12-29T15:24:54;12.60;99.90
4215;DHT22;2121;48.062;7.850;2022-12-29T15:27:25;12.60;99.90
4215;DHT22;2121;48.062;7.850;2022-12-29T15:30:00;12.50;99.90
4215;DHT22;2121;48.062;7.850;2022-12-29T15:32:38;12.50;99.90
4215;DHT22;2121;48.062;7.850;2022-12-29T15:35:32;12.40;99.90
4215;DHT22;2121;48.062;7.850;2022-12-29T15:38:01;12.40;99.90
4215;DHT22;2121;48.062;7.850;2022-12-29T15:40:39;12.40;99.90
4215;DHT22;2121;48.062;7.850;2022-12-29T15:43:21;12.40;99.90
4215;DHT22;2121;48.062;7.850;2022-12-29T15:45:51;12.40;99.90
4215;DHT22;2121;48.062;7.850;2022-12-29T15:48:22;12.50;99.90
4215;DHT22;2121;48.062;7.850;2022-12-29T15:50:49;12.50;99.90
4215;DHT22;2121;48.062;7.850;2022-12-29T15:56:00;12.40;99.90
4215;DHT22;2121;48.062;7.850;2022-12-29T15:58:29;12.40;99.90
4215;DHT22;2121;48.062;7.850;2022-12-29T16:01:01;12.30;99.90
4215;DHT22;2121;48.062;7.850;2022-12-29T16:03:31;12.20;99.90
4215;DHT22;2121;48.062;7.850;2022-12-29T16:06:10;12.20;99.90
4215;DHT22;2121;48.062;7.850;2022-12-29T16:09:00;12.10;99.90
4215;DHT22;2121;48.062;7.850;2022-12-29T16:11:38;12.10;99.90
4215;DHT22;2121;48.062;7.850;2022-12-29T16:14:14;12.00;99.90
4215;DHT22;2121;48.062;7.850;2022-12-29T16:16:43;11.90;99.90
4215;DHT22;2121;48.062;7.850;2022-12-29T16:19:14;11.90;99.90
4215;DHT22;2121;48.062;7.850;2022-12-29T16:21:44;11.90;99.90
4215;DHT22;2121;48.062;7.850;2022-12-29T16:24:17;11.90;99.90
4215;DHT22;2121;48.062;7.850;2022-12-29T16:26:47;11.90;99.90
4215;DHT22;2121;48.062;7.850;2022-12-29T16:29:14;11.90;99.90
4215;DHT22;2121;48.062;7.850;2022-12-29T16:31:57;11.90;99.90
4215;DHT22;2121;48.062;7.850;2022-12-29T16:39:50;11.80;99.90
4215;DHT22;2121;48.062;7.850;2022-12-29T16:50:41;11.80;99.90
4215;DHT22;2121;48.062;7.850;2022-12-29T16:53:29;11.80;99.90
4215;DHT22;2121;48.062;7.850;2022-12-29T16:56:22;11.80;99.90
4215;DHT22;2121;48.062;7.850;2022-12-29T17:01:30;11.90;99.90
4215;DHT22;2121;48.062;7.850;2022-12-29T17:04:13;11.90;99.90
4215;DHT22;2121;48.062;7.850;2022-12-29T17:06:40;11.90;99.90
4215;DHT22;2121;48.062;7.850;2022-12-29T17:11:51;11.90;99.90
4215;DHT22;2121;48.062;7.850;2022-12-29T17:14:43;11.80;99.90
4215;DHT22;2121;48.062;7.850;2022-12-29T17:17:30;11.70;99.90
4215;DHT22;2121;48.062;7.850;2022-12-29T17:20:19;11.60;99.90
4215;DHT22;2121;48.062;7.850;2022-12-29T17:22:47;11.50;99.90
4215;DHT22;2121;48.062;7.850;2022-12-29T17:25:16;11.40;99.90
4215;DHT22;2121;48.062;7.850;2022-12-29T17:27:49;11.30;99.90
4215;DHT22;2121;48.062;7.850;2022-12-29T17:30:20;11.30;99.90
4215;DHT22;2121;48.062;7.850;2022-12-29T17:32:52;11.20;99.90
4215;DHT22;2121;48.062;7.850;2022-12-29T17:35:21;11.20;99.90
4215;DHT22;2121;48.062;7.850;2022-12-29T17:37:48;11.20;99.90
4215;DHT22;2121;48.062;7.850;2022-12-29T17:40:26;11.20;99.90
4215;DHT22;2121;48.062;7.850;2022-12-29T17:42:55;11.20;99.90
4215;DHT22;2121;48.062;7.850;2022-12-29T17:45:31;11.20;99.90
4215;DHT22;2121;48.062;7.850;2022-12-29T17:47:58;11.10;99.90
4215;DHT22;2121;48.062;7.850;2022-12-29T17:50:29;11.10;99.90
4215;DHT22;2121;48.062;7.850;2022-12-29T17:52:59;11.10;99.90
4215;DHT22;2121;48.062;7.850;2022-12-29T17:55:30;11.20;99.90
4215;DHT22;2121;48.062;7.850;2022-12-29T17:57:55;11.30;99.90
4215;DHT22;2121;48.062;7.850;2022-12-29T18:00:26;11.30;99.90
4215;DHT22;2121;48.062;7.850;2022-12-29T18:02:54;11.30;99.90
4215;DHT22;2121;48.062;7.850;2022-12-29T18:05:23;11.40;99.90
4215;DHT22;2121;48.062;7.850;2022-12-29T18:07:53;11.40;99.90
4215;DHT22;2121;48.062;7.850;2022-12-29T18:10:24;11.50;99.90
4215;DHT22;2121;48.062;7.850;2022-12-29T18:12:53;11.50;99.90
4215;DHT22;2121;48.062;7.850;2022-12-29T18:18:05;11.50;99.90
4215;DHT22;2121;48.062;7.850;2022-12-29T18:20:34;11.50;99.90
4215;DHT22;2121;48.062;7.850;2022-12-29T18:23:00;11.50;99.90
4215;DHT22;2121;48.062;7.850;2022-12-29T18:25:32;11.70;99.90
4215;DHT22;2121;48.062;7.850;2022-12-29T18:28:21;11.70;99.90
4215;DHT22;2121;48.062;7.850;2022-12-29T18:30:49;11.70;99.90
4215;DHT22;2121;48.062;7.850;2022-12-29T18:33:17;11.70;99.90
4215;DHT22;2121;48.062;7.850;2022-12-29T18:35:48;11.70;99.90
4215;DHT22;2121;48.062;7.850;2022-12-29T18:38:17;11.80;99.90
4215;DHT22;2121;48.062;7.850;2022-12-29T18:40:43;11.80;99.90
4215;DHT22;2121;48.062;7.850;2022-12-29T18:43:13;11.90;99.90
4215;DHT22;2121;48.062;7.850;2022-12-29T18:45:39;11.80;99.90
4215;DHT22;2121;48.062;7.850;2022-12-29T18:48:06;11.90;99.90
4215;DHT22;2121;48.062;7.850;2022-12-29T18:50:31;11.90;99.90
4215;DHT22;2121;48.062;7.850;2022-12-29T18:52:57;11.90;99.90
4215;DHT22;2121;48.062;7.850;2022-12-29T18:55:26;12.00;99.90
4215;DHT22;2121;48.062;7.850;2022-12-29T18:57:53;11.90;99.90
4215;DHT22;2121;48.062;7.850;2022-12-29T19:00:21;11.90;99.90
4215;DHT22;2121;48.062;7.850;2022-12-29T19:02:48;11.80;99.90
4215;DHT22;2121;48.062;7.850;2022-12-29T19:05:28;11.60;99.90
4215;DHT22;2121;48.062;7.850;2022-12-29T19:07:55;11.40;99.90
4215;DHT22;2121;48.062;7.850;2022-12-29T19:10:23;11.30;99.90
4215;DHT22;2121;48.062;7.850;2022-12-29T19:12:50;11.20;99.90
4215;DHT22;2121;48.062;7.850;2022-12-29T19:15:22;11.10;99.90
4215;DHT22;2121;48.062;7.850;2022-12-29T19:17:52;11.10;99.90
4215;DHT22;2121;48.062;7.850;2022-12-29T19:20:32;11.00;99.90
4215;DHT22;2121;48.062;7.850;2022-12-29T19:23:00;10.90;99.90
4215;DHT22;2121;48.062;7.850;2022-12-29T19:25:28;10.80;99.90
4215;DHT22;2121;48.062;7.850;2022-12-29T19:27:53;10.70;99.90